sensor_id;sensor_type;location;lat;lon;timestamp;temperature;humidity
28767;DHT22;15921;52.034;20.650;2022-08-19T00:00:36;21.10;99.90
28767;DHT22;15921;52.034;20.650;2022-08-19T00:03:03;21.20;99.90
28767;DHT22;15921;52.034;20.650;2022-08-19T00:05:28;21.10;99.90
28767;DHT22;15921;52.034;20.650;2022-08-19T00:07:54;21.10;99.90
28767;DHT22;15921;52.034;20.650;2022-08-19T00:10:20;21.10;99.90
28767;DHT22;15921;52.034;20.650;2022-08-19T00:12:46;21.10;99.90
28767;DHT22;15921;52.034;20.650;2022-08-19T00:15:13;21.10;99.90
28767;DHT22;15921;52.034;20.650;2022-08-19T00:17:39;21.10;99.90
28767;DHT22;15921;52.034;20.650;2022-08-19T00:20:06;21.10;99.90
28767;DHT22;15921;52.034;20.650;2022-08-19T00:22:31;21.00;99.90
28767;DHT22;15921;52.034;20.650;2022-08-19T00:24:58;20.90;99.90
28767;DHT22;15921;52.034;20.650;2022-08-19T00:27:24;20.90;99.90
28767;DHT22;15921;52.034;20.650;2022-08-19T00:29:50;20.90;99.90
28767;DHT22;15921;52.034;20.650;2022-08-19T00:32:16;20.90;99.90
28767;DHT22;15921;52.034;20.650;2022-08-19T00:34:41;20.90;99.90
28767;DHT22;15921;52.034;20.650;2022-08-19T00:37:07;20.90;99.90
28767;DHT22;15921;52.034;20.650;2022-08-19T00:39:33;20.80;99.90
28767;DHT22;15921;52.034;20.650;2022-08-19T00:42:18;20.80;99.90
28767;DHT22;15921;52.034;20.650;2022-08-19T00:44:43;20.80;99.90
28767;DHT22;15921;52.034;20.650;2022-08-19T00:47:09;20.80;99.90
28767;DHT22;15921;52.034;20.650;2022-08-19T00:52:47;20.70;99.90
28767;DHT22;15921;52.034;20.650;2022-08-19T00:55:23;20.70;99.90
28767;DHT22;15921;52.034;20.650;2022-08-19T00:57:51;20.70;99.90
28767;DHT22;15921;52.034;20.650;2022-08-19T01:00:20;20.70;99.90
28767;DHT22;15921;52.034;20.650;2022-08-19T01:02:46;20.70;99.90
28767;DHT22;15921;52.034;20.650;2022-08-19T01:05:16;20.70;99.90
28767;DHT22;15921;52.034;20.650;2022-08-19T01:07:44;20.60;99.90
28767;DHT22;15921;52.034;20.650;2022-08-19T01:10:13;20.60;99.90
28767;DHT22;15921;52.034;20.650;2022-08-19T01:12:40;20.50;99.90
28767;DHT22;15921;52.034;20.650;2022-08-19T01:15:07;20.50;99.90
28767;DHT22;15921;52.034;20.650;2022-08-19T01:17:33;20.50;99.90
28767;DHT22;15921;52.034;20.650;2022-08-19T01:20:00;20.50;99.90
28767;DHT22;15921;52.034;20.650;2022-08-19T01:25:26;20.50;99.90
28767;DHT22;15921;52.034;20.650;2022-08-19T01:27:53;20.50;99.90
28767;DHT22;15921;52.034;20.650;2022-08-19T01:30:23;20.40;99.90
28767;DHT22;15921;52.034;20.650;2022-08-19T01:32:50;20.40;99.90
28767;DHT22;15921;52.034;20.650;2022-08-19T01:35:16;20.40;99.90
28767;DHT22;15921;52.034;20.650;2022-08-19T01:37:44;20.40;99.90
28767;DHT22;15921;52.034;20.650;2022-08-19T01:40:10;20.40;99.90
28767;DHT22;15921;52.034;20.650;2022-08-19T01:42:35;20.30;99.90
28767;DHT22;15921;52.034;20.650;2022-08-19T01:45:01;20.30;99.90
28767;DHT22;15921;52.034;20.650;2022-08-19T01:47:27;20.20;99.90
28767;DHT22;15921;52.034;20.650;2022-08-19T01:49:52;20.20;99.90
28767;DHT22;15921;52.034;20.650;2022-08-19T01:52:18;20.20;99.90
28767;DHT22;15921;52.034;20.650;2022-08-19T01:54:44;20.20;99.90
28767;DHT22;15921;52.034;20.650;2022-08-19T01:57:18;20.20;99.90
28767;DHT22;15921;52.034;20.650;2022-08-19T01:59:44;20.20;99.90
28767;DHT22;15921;52.034;20.650;2022-08-19T02:02:10;20.20;99.90
28767;DHT22;15921;52.034;20.650;2022-08-19T02:04:36;20.10;99.90
28767;DHT22;15921;52.034;20.650;2022-08-19T02:07:03;20.20;99.90
28767;DHT22;15921;52.034;20.650;2022-08-19T02:09:30;20.20;99.90
28767;DHT22;15921;52.034;20.650;2022-08-19T02:11:56;20.20;99.90
28767;DHT22;15921;52.034;20.650;2022-08-19T02:14:21;20.20;99.90
28767;DHT22;15921;52.034;20.650;2022-08-19T02:16:47;20.10;99.90
28767;DHT22;15921;52.034;20.650;2022-08-19T02:19:13;20.10;99.90
28767;DHT22;15921;52.034;20.650;2022-08-19T02:21:38;20.10;99.90
28767;DHT22;15921;52.034;20.650;2022-08-19T02:24:04;20.10;99.90
28767;DHT22;15921;52.034;20.650;2022-08-19T02:26:30;20.10;99.90
28767;DHT22;15921;52.034;20.650;2022-08-19T02:28:56;20.10;99.90
28767;DHT22;15921;52.034;20.650;2022-08-19T02:31:22;20.00;99.90
28767;DHT22;15921;52.034;20.650;2022-08-19T02:33:48;20.10;99.90
28767;DHT22;15921;52.034;20.650;2022-08-19T02:36:15;20.10;99.90
28767;DHT22;15921;52.034;20.650;2022-08-19T02:38:41;20.10;99.90
28767;DHT22;15921;52.034;20.650;2022-08-19T02:41:10;20.10;99.90
28767;DHT22;15921;52.034;20.650;2022-08-19T02:43:36;20.10;99.90
28767;DHT22;15921;52.034;20.650;2022-08-19T02:46:10;20.10;99.90
28767;DHT22;15921;52.034;20.650;2022-08-19T02:48:36;20.10;99.90
28767;DHT22;15921;52.034;20.650;2022-08-19T02:51:02;20.10;99.90
28767;DHT22;15921;52.034;20.650;2022-08-19T02:53:28;20.00;99.90
28767;DHT22;15921;52.034;20.650;2022-08-19T02:55:54;20.00;99.90
28767;DHT22;15921;52.034;20.650;2022-08-19T02:58:20;20.00;99.90
28767;DHT22;15921;52.034;20.650;2022-08-19T03:00:50;20.00;99.90
28767;DHT22;15921;52.034;20.650;2022-08-19T03:03:16;20.00;99.90
28767;DHT22;15921;52.034;20.650;2022-08-19T03:05:42;20.00;99.90
28767;DHT22;15921;52.034;20.650;2022-08-19T03:08:08;20.00;99.90
28767;DHT22;15921;52.034;20.650;2022-08-19T03:10:46;20.10;99.90
28767;DHT22;15921;52.034;20.650;2022-08-19T03:13:15;20.00;99.90
28767;DHT22;15921;52.034;20.650;2022-08-19T03:15:42;20.00;99.90
28767;DHT22;15921;52.034;20.650;2022-08-19T03:18:08;20.00;99.90
28767;DHT22;15921;52.034;20.650;2022-08-19T03:20:33;20.00;99.90
28767;DHT22;15921;52.034;20.650;2022-08-19T03:22:59;20.00;99.90
28767;DHT22;15921;52.034;20.650;2022-08-19T03:25:25;20.00;99.90
28767;DHT22;15921;52.034;20.650;2022-08-19T03:27:50;20.00;99.90
28767;DHT22;15921;52.034;20.650;2022-08-19T03:30:16;20.00;99.90
28767;DHT22;15921;52.034;20.650;2022-08-19T03:32:41;20.00;99.90
28767;DHT22;15921;52.034;20.650;2022-08-19T03:35:08;20.00;99.90
28767;DHT22;15921;52.034;20.650;2022-08-19T03:37:33;20.00;99.90
28767;DHT22;15921;52.034;20.650;2022-08-19T03:39:59;20.00;99.90
28767;DHT22;15921;52.034;20.650;2022-08-19T03:42:27;20.00;99.90
28767;DHT22;15921;52.034;20.650;2022-08-19T03:44:52;20.00;99.90
28767;DHT22;15921;52.034;20.650;2022-08-19T03:47:18;20.10;99.90
28767;DHT22;15921;52.034;20.650;2022-08-19T03:49:44;20.10;99.90
28767;DHT22;15921;52.034;20.650;2022-08-19T03:52:09;20.20;99.90
28767;DHT22;15921;52.034;20.650;2022-08-19T03:54:35;20.20;99.90
28767;DHT22;15921;52.034;20.650;2022-08-19T03:57:18;20.30;99.90
28767;DHT22;15921;52.034;20.650;2022-08-19T03:59:44;20.30;99.90
28767;DHT22;15921;52.034;20.650;2022-08-19T04:02:10;20.40;99.90
28767;DHT22;15921;52.034;20.650;2022-08-19T04:04:37;20.40;99.90
28767;DHT22;15921;52.034;20.650;2022-08-19T04:07:03;20.50;99.90
28767;DHT22;15921;52.034;20.650;2022-08-19T04:09:28;20.50;99.90
28767;DHT22;15921;52.034;20.650;2022-08-19T04:11:55;20.60;99.90
28767;DHT22;15921;52.034;20.650;2022-08-19T04:14:22;20.70;99.90
28767;DHT22;15921;52.034;20.650;2022-08-19T04:16:49;20.70;99.90
28767;DHT22;15921;52.034;20.650;2022-08-19T04:19:15;20.80;99.90
28767;DHT22;15921;52.034;20.650;2022-08-19T04:21:42;20.80;99.90
28767;DHT22;15921;52.034;20.650;2022-08-19T04:24:09;21.00;99.90
28767;DHT22;15921;52.034;20.650;2022-08-19T04:26:36;21.10;99.90
28767;DHT22;15921;52.034;20.650;2022-08-19T04:29:10;21.10;99.90
28767;DHT22;15921;52.034;20.650;2022-08-19T04:31:36;21.20;99.90
28767;DHT22;15921;52.034;20.650;2022-08-19T04:34:04;21.30;99.90
28767;DHT22;15921;52.034;20.650;2022-08-19T04:36:31;21.40;99.90
28767;DHT22;15921;52.034;20.650;2022-08-19T04:38:59;21.50;99.90
28767;DHT22;15921;52.034;20.650;2022-08-19T04:41:25;21.60;99.90
28767;DHT22;15921;52.034;20.650;2022-08-19T04:44:09;21.70;99.90
28767;DHT22;15921;52.034;20.650;2022-08-19T04:46:35;21.70;99.90
28767;DHT22;15921;52.034;20.650;2022-08-19T04:49:02;21.70;99.90
28767;DHT22;15921;52.034;20.650;2022-08-19T04:51:27;21.70;99.90
28767;DHT22;15921;52.034;20.650;2022-08-19T04:53:54;21.70;99.90
28767;DHT22;15921;52.034;20.650;2022-08-19T04:56:20;21.70;99.90
28767;DHT22;15921;52.034;20.650;2022-08-19T04:58:46;21.80;99.90
28767;DHT22;15921;52.034;20.650;2022-08-19T05:01:33;21.80;99.90
28767;DHT22;15921;52.034;20.650;2022-08-19T05:03:59;21.80;99.90
28767;DHT22;15921;52.034;20.650;2022-08-19T05:06:25;21.90;99.90
28767;DHT22;15921;52.034;20.650;2022-08-19T05:08:51;21.90;99.90
28767;DHT22;15921;52.034;20.650;2022-08-19T05:11:21;21.90;99.90
28767;DHT22;15921;52.034;20.650;2022-08-19T05:13:47;22.00;99.90
28767;DHT22;15921;52.034;20.650;2022-08-19T05:16:14;22.10;99.90
28767;DHT22;15921;52.034;20.650;2022-08-19T05:18:40;22.20;99.90
28767;DHT22;15921;52.034;20.650;2022-08-19T05:21:25;22.30;99.90
28767;DHT22;15921;52.034;20.650;2022-08-19T05:24:09;22.50;99.90
28767;DHT22;15921;52.034;20.650;2022-08-19T05:26:35;22.60;99.90
28767;DHT22;15921;52.034;20.650;2022-08-19T05:29:01;22.70;99.90
28767;DHT22;15921;52.034;20.650;2022-08-19T05:31:27;22.80;99.90
28767;DHT22;15921;52.034;20.650;2022-08-19T05:33:52;22.90;99.90
28767;DHT22;15921;52.034;20.650;2022-08-19T05:36:18;23.00;99.90
28767;DHT22;15921;52.034;20.650;2022-08-19T05:38:45;23.10;99.90
28767;DHT22;15921;52.034;20.650;2022-08-19T05:41:12;23.10;99.90
28767;DHT22;15921;52.034;20.650;2022-08-19T05:43:38;23.20;99.90
28767;DHT22;15921;52.034;20.650;2022-08-19T05:46:04;23.40;99.90
28767;DHT22;15921;52.034;20.650;2022-08-19T05:48:30;23.50;99.90
28767;DHT22;15921;52.034;20.650;2022-08-19T05:50:56;23.50;99.90
28767;DHT22;15921;52.034;20.650;2022-08-19T05:53:23;23.60;99.90
28767;DHT22;15921;52.034;20.650;2022-08-19T05:55:49;23.60;99.90
28767;DHT22;15921;52.034;20.650;2022-08-19T05:58:14;23.50;99.90
28767;DHT22;15921;52.034;20.650;2022-08-19T06:00:40;23.50;99.90
28767;DHT22;15921;52.034;20.650;2022-08-19T06:03:07;23.50;99.90
28767;DHT22;15921;52.034;20.650;2022-08-19T06:05:33;23.40;99.90
28767;DHT22;15921;52.034;20.650;2022-08-19T06:07:59;23.40;99.90
28767;DHT22;15921;52.034;20.650;2022-08-19T06:10:24;23.60;99.90
28767;DHT22;15921;52.034;20.650;2022-08-19T06:12:51;23.70;99.90
28767;DHT22;15921;52.034;20.650;2022-08-19T06:15:17;23.70;99.90
28767;DHT22;15921;52.034;20.650;2022-08-19T06:17:42;23.70;99.90
28767;DHT22;15921;52.034;20.650;2022-08-19T06:20:10;23.70;99.90
28767;DHT22;15921;52.034;20.650;2022-08-19T06:22:42;23.70;99.90
28767;DHT22;15921;52.034;20.650;2022-08-19T06:25:08;23.90;99.90
28767;DHT22;15921;52.034;20.650;2022-08-19T06:27:34;24.00;99.90
28767;DHT22;15921;52.034;20.650;2022-08-19T06:30:00;24.00;99.90
28767;DHT22;15921;52.034;20.650;2022-08-19T06:32:26;24.10;99.90
28767;DHT22;15921;52.034;20.650;2022-08-19T06:34:52;24.20;99.90
28767;DHT22;15921;52.034;20.650;2022-08-19T06:37:17;24.30;99.90
28767;DHT22;15921;52.034;20.650;2022-08-19T06:39:43;24.50;99.90
28767;DHT22;15921;52.034;20.650;2022-08-19T06:42:10;24.50;99.90
28767;DHT22;15921;52.034;20.650;2022-08-19T06:44:38;24.60;99.90
28767;DHT22;15921;52.034;20.650;2022-08-19T06:47:05;24.80;99.90
28767;DHT22;15921;52.034;20.650;2022-08-19T06:49:31;24.80;99.90
28767;DHT22;15921;52.034;20.650;2022-08-19T06:51:57;24.90;99.90
28767;DHT22;15921;52.034;20.650;2022-08-19T06:54:23;25.00;99.90
28767;DHT22;15921;52.034;20.650;2022-08-19T06:56:49;25.10;99.90
28767;DHT22;15921;52.034;20.650;2022-08-19T06:59:16;25.10;99.90
28767;DHT22;15921;52.034;20.650;2022-08-19T07:01:52;25.30;99.90
28767;DHT22;15921;52.034;20.650;2022-08-19T07:04:19;25.30;99.90
28767;DHT22;15921;52.034;20.650;2022-08-19T07:06:45;25.40;99.90
28767;DHT22;15921;52.034;20.650;2022-08-19T07:09:12;25.50;99.90
28767;DHT22;15921;52.034;20.650;2022-08-19T07:11:38;25.60;99.90
28767;DHT22;15921;52.034;20.650;2022-08-19T07:14:04;25.70;99.90
28767;DHT22;15921;52.034;20.650;2022-08-19T07:16:31;25.80;99.90
28767;DHT22;15921;52.034;20.650;2022-08-19T07:18:57;25.90;99.90
28767;DHT22;15921;52.034;20.650;2022-08-19T07:21:24;26.00;99.90
28767;DHT22;15921;52.034;20.650;2022-08-19T07:23:51;26.10;99.90
28767;DHT22;15921;52.034;20.650;2022-08-19T07:28:45;26.30;99.90
28767;DHT22;15921;52.034;20.650;2022-08-19T07:31:11;26.40;99.90
28767;DHT22;15921;52.034;20.650;2022-08-19T07:33:38;26.60;99.90
28767;DHT22;15921;52.034;20.650;2022-08-19T07:36:06;26.70;99.90
28767;DHT22;15921;52.034;20.650;2022-08-19T07:38:32;26.80;99.90
28767;DHT22;15921;52.034;20.650;2022-08-19T07:40:59;26.90;99.90
28767;DHT22;15921;52.034;20.650;2022-08-19T07:43:25;27.00;99.90
28767;DHT22;15921;52.034;20.650;2022-08-19T07:45:52;27.10;99.90
28767;DHT22;15921;52.034;20.650;2022-08-19T07:48:25;27.20;99.90
28767;DHT22;15921;52.034;20.650;2022-08-19T07:50:52;27.40;99.90
28767;DHT22;15921;52.034;20.650;2022-08-19T07:53:18;27.50;99.90
28767;DHT22;15921;52.034;20.650;2022-08-19T07:55:44;27.60;99.90
28767;DHT22;15921;52.034;20.650;2022-08-19T07:58:11;27.70;99.90
28767;DHT22;15921;52.034;20.650;2022-08-19T08:00:37;27.80;99.90
28767;DHT22;15921;52.034;20.650;2022-08-19T08:03:03;27.90;99.90
28767;DHT22;15921;52.034;20.650;2022-08-19T08:05:29;28.00;99.90
28767;DHT22;15921;52.034;20.650;2022-08-19T08:08:13;28.00;99.90
28767;DHT22;15921;52.034;20.650;2022-08-19T08:10:57;28.10;99.90
28767;DHT22;15921;52.034;20.650;2022-08-19T08:13:24;28.20;99.90
28767;DHT22;15921;52.034;20.650;2022-08-19T08:15:49;28.20;99.90
28767;DHT22;15921;52.034;20.650;2022-08-19T08:18:15;28.20;99.90
28767;DHT22;15921;52.034;20.650;2022-08-19T08:20:41;28.20;99.90
28767;DHT22;15921;52.034;20.650;2022-08-19T08:23:06;28.30;99.90
28767;DHT22;15921;52.034;20.650;2022-08-19T08:25:52;28.30;99.90
28767;DHT22;15921;52.034;20.650;2022-08-19T08:28:18;28.40;99.90
28767;DHT22;15921;52.034;20.650;2022-08-19T08:30:44;28.40;99.90
28767;DHT22;15921;52.034;20.650;2022-08-19T08:33:11;28.40;99.90
28767;DHT22;15921;52.034;20.650;2022-08-19T08:35:37;28.50;99.90
28767;DHT22;15921;52.034;20.650;2022-08-19T08:38:02;28.60;99.90
28767;DHT22;15921;52.034;20.650;2022-08-19T08:43:33;28.60;99.80
28767;DHT22;15921;52.034;20.650;2022-08-19T08:45:54;28.70;99.90
28767;DHT22;15921;52.034;20.650;2022-08-19T08:48:22;28.70;99.90
28767;DHT22;15921;52.034;20.650;2022-08-19T08:50:49;28.80;98.80
28767;DHT22;15921;52.034;20.650;2022-08-19T08:53:18;28.80;98.30
28767;DHT22;15921;52.034;20.650;2022-08-19T08:55:44;28.90;97.30
28767;DHT22;15921;52.034;20.650;2022-08-19T08:58:12;29.00;98.50
28767;DHT22;15921;52.034;20.650;2022-08-19T09:00:45;29.10;98.20
28767;DHT22;15921;52.034;20.650;2022-08-19T09:03:21;29.20;97.20
28767;DHT22;15921;52.034;20.650;2022-08-19T09:10:46;29.50;95.40
28767;DHT22;15921;52.034;20.650;2022-08-19T09:13:27;29.60;95.90
28767;DHT22;15921;52.034;20.650;2022-08-19T09:16:00;29.70;96.20
28767;DHT22;15921;52.034;20.650;2022-08-19T09:18:45;29.70;94.50
28767;DHT22;15921;52.034;20.650;2022-08-19T09:21:12;29.80;94.60
28767;DHT22;15921;52.034;20.650;2022-08-19T09:23:38;30.00;94.10
28767;DHT22;15921;52.034;20.650;2022-08-19T09:26:12;30.10;94.10
28767;DHT22;15921;52.034;20.650;2022-08-19T09:28:41;30.10;93.50
28767;DHT22;15921;52.034;20.650;2022-08-19T09:31:13;30.20;92.30
28767;DHT22;15921;52.034;20.650;2022-08-19T09:33:38;30.20;92.40
28767;DHT22;15921;52.034;20.650;2022-08-19T09:36:08;30.20;92.70
28767;DHT22;15921;52.034;20.650;2022-08-19T09:38:34;30.30;92.80
28767;DHT22;15921;52.034;20.650;2022-08-19T09:41:04;30.40;92.30
28767;DHT22;15921;52.034;20.650;2022-08-19T09:43:30;30.50;91.70
28767;DHT22;15921;52.034;20.650;2022-08-19T09:45:56;30.50;92.20
28767;DHT22;15921;52.034;20.650;2022-08-19T09:48:22;30.60;90.80
28767;DHT22;15921;52.034;20.650;2022-08-19T09:50:47;30.70;91.10
28767;DHT22;15921;52.034;20.650;2022-08-19T09:53:13;30.80;91.60
28767;DHT22;15921;52.034;20.650;2022-08-19T09:55:42;30.90;92.10
28767;DHT22;15921;52.034;20.650;2022-08-19T09:58:07;31.00;90.90
28767;DHT22;15921;52.034;20.650;2022-08-19T10:00:33;31.00;90.50
28767;DHT22;15921;52.034;20.650;2022-08-19T10:02:59;31.10;90.90
28767;DHT22;15921;52.034;20.650;2022-08-19T10:05:24;31.20;90.40
28767;DHT22;15921;52.034;20.650;2022-08-19T10:08:09;31.30;90.30
28767;DHT22;15921;52.034;20.650;2022-08-19T10:10:35;31.30;89.80
28767;DHT22;15921;52.034;20.650;2022-08-19T10:13:01;31.40;88.90
28767;DHT22;15921;52.034;20.650;2022-08-19T10:15:26;31.50;87.00
28767;DHT22;15921;52.034;20.650;2022-08-19T10:17:52;31.60;88.30
28767;DHT22;15921;52.034;20.650;2022-08-19T10:20:17;31.70;86.60
28767;DHT22;15921;52.034;20.650;2022-08-19T10:22:43;31.70;84.40
28767;DHT22;15921;52.034;20.650;2022-08-19T10:25:09;31.80;85.00
28767;DHT22;15921;52.034;20.650;2022-08-19T10:27:35;31.90;82.40
28767;DHT22;15921;52.034;20.650;2022-08-19T10:30:03;32.00;81.30
28767;DHT22;15921;52.034;20.650;2022-08-19T10:32:30;31.90;80.90
28767;DHT22;15921;52.034;20.650;2022-08-19T10:34:56;32.00;78.80
28767;DHT22;15921;52.034;20.650;2022-08-19T10:37:22;32.00;79.30
28767;DHT22;15921;52.034;20.650;2022-08-19T10:39:47;32.10;80.80
28767;DHT22;15921;52.034;20.650;2022-08-19T10:42:13;32.30;81.30
28767;DHT22;15921;52.034;20.650;2022-08-19T10:44:39;32.50;81.30
28767;DHT22;15921;52.034;20.650;2022-08-19T10:47:05;32.60;81.80
28767;DHT22;15921;52.034;20.650;2022-08-19T10:49:31;32.70;77.90
28767;DHT22;15921;52.034;20.650;2022-08-19T10:51:57;32.70;76.70
28767;DHT22;15921;52.034;20.650;2022-08-19T10:54:41;32.70;75.60
28767;DHT22;15921;52.034;20.650;2022-08-19T10:57:25;32.80;74.80
28767;DHT22;15921;52.034;20.650;2022-08-19T10:59:55;32.80;74.80
28767;DHT22;15921;52.034;20.650;2022-08-19T11:02:21;32.90;74.50
28767;DHT22;15921;52.034;20.650;2022-08-19T11:04:47;33.00;76.40
28767;DHT22;15921;52.034;20.650;2022-08-19T11:07:14;33.20;76.80
28767;DHT22;15921;52.034;20.650;2022-08-19T11:09:41;33.40;77.40
28767;DHT22;15921;52.034;20.650;2022-08-19T11:12:08;33.50;74.50
28767;DHT22;15921;52.034;20.650;2022-08-19T11:14:34;33.40;73.50
28767;DHT22;15921;52.034;20.650;2022-08-19T11:17:00;33.50;73.00
28767;DHT22;15921;52.034;20.650;2022-08-19T11:19:26;33.60;74.00
28767;DHT22;15921;52.034;20.650;2022-08-19T11:21:53;33.70;71.90
28767;DHT22;15921;52.034;20.650;2022-08-19T11:24:20;33.90;72.00
28767;DHT22;15921;52.034;20.650;2022-08-19T11:26:47;33.90;71.30
28767;DHT22;15921;52.034;20.650;2022-08-19T11:29:17;33.90;70.00
28767;DHT22;15921;52.034;20.650;2022-08-19T11:31:45;33.90;70.30
28767;DHT22;15921;52.034;20.650;2022-08-19T11:34:12;33.90;69.70
28767;DHT22;15921;52.034;20.650;2022-08-19T11:36:38;34.00;69.50
28767;DHT22;15921;52.034;20.650;2022-08-19T11:39:05;34.20;69.10
28767;DHT22;15921;52.034;20.650;2022-08-19T11:41:31;34.30;68.30
28767;DHT22;15921;52.034;20.650;2022-08-19T11:43:57;34.30;69.00
28767;DHT22;15921;52.034;20.650;2022-08-19T11:46:23;34.50;67.60
28767;DHT22;15921;52.034;20.650;2022-08-19T11:48:49;34.60;68.80
28767;DHT22;15921;52.034;20.650;2022-08-19T11:51:21;34.70;67.70
28767;DHT22;15921;52.034;20.650;2022-08-19T11:53:47;35.00;66.60
28767;DHT22;15921;52.034;20.650;2022-08-19T11:56:13;35.20;65.90
28767;DHT22;15921;52.034;20.650;2022-08-19T11:58:39;35.40;67.10
28767;DHT22;15921;52.034;20.650;2022-08-19T12:01:07;35.60;66.30
28767;DHT22;15921;52.034;20.650;2022-08-19T12:03:33;35.70;65.30
28767;DHT22;15921;52.034;20.650;2022-08-19T12:06:03;36.00;63.90
28767;DHT22;15921;52.034;20.650;2022-08-19T12:08:28;36.10;64.10
28767;DHT22;15921;52.034;20.650;2022-08-19T12:10:54;36.50;64.70
28767;DHT22;15921;52.034;20.650;2022-08-19T12:13:19;36.90;61.50
28767;DHT22;15921;52.034;20.650;2022-08-19T12:15:45;37.90;60.10
28767;DHT22;15921;52.034;20.650;2022-08-19T12:18:12;39.00;57.30
28767;DHT22;15921;52.034;20.650;2022-08-19T12:20:39;40.20;56.10
28767;DHT22;15921;52.034;20.650;2022-08-19T12:23:06;41.30;52.80
28767;DHT22;15921;52.034;20.650;2022-08-19T12:25:32;42.00;50.40
28767;DHT22;15921;52.034;20.650;2022-08-19T12:28:00;42.60;49.80
28767;DHT22;15921;52.034;20.650;2022-08-19T12:30:25;43.50;48.90
28767;DHT22;15921;52.034;20.650;2022-08-19T12:32:51;44.20;47.30
28767;DHT22;15921;52.034;20.650;2022-08-19T12:35:17;44.70;46.10
28767;DHT22;15921;52.034;20.650;2022-08-19T12:37:46;45.30;46.30
28767;DHT22;15921;52.034;20.650;2022-08-19T12:40:12;45.80;44.30
28767;DHT22;15921;52.034;20.650;2022-08-19T12:42:38;46.30;44.00
28767;DHT22;15921;52.034;20.650;2022-08-19T12:45:08;46.70;43.30
28767;DHT22;15921;52.034;20.650;2022-08-19T12:47:34;47.20;42.00
28767;DHT22;15921;52.034;20.650;2022-08-19T12:50:00;47.30;41.10
28767;DHT22;15921;52.034;20.650;2022-08-19T12:52:25;47.50;40.90
28767;DHT22;15921;52.034;20.650;2022-08-19T12:54:53;47.60;40.70
28767;DHT22;15921;52.034;20.650;2022-08-19T12:57:19;47.60;40.60
28767;DHT22;15921;52.034;20.650;2022-08-19T12:59:45;47.60;40.60
28767;DHT22;15921;52.034;20.650;2022-08-19T13:02:10;48.00;39.30
28767;DHT22;15921;52.034;20.650;2022-08-19T13:04:36;48.40;39.80
28767;DHT22;15921;52.034;20.650;2022-08-19T13:07:06;48.40;39.20
28767;DHT22;15921;52.034;20.650;2022-08-19T13:09:31;48.50;39.60
28767;DHT22;15921;52.034;20.650;2022-08-19T13:11:57;48.90;39.30
28767;DHT22;15921;52.034;20.650;2022-08-19T13:14:23;49.10;37.80
28767;DHT22;15921;52.034;20.650;2022-08-19T13:16:48;49.00;38.70
28767;DHT22;15921;52.034;20.650;2022-08-19T13:19:14;49.30;38.40
28767;DHT22;15921;52.034;20.650;2022-08-19T13:21:39;49.80;38.30
28767;DHT22;15921;52.034;20.650;2022-08-19T13:24:05;49.90;37.60
28767;DHT22;15921;52.034;20.650;2022-08-19T13:26:31;50.10;37.90
28767;DHT22;15921;52.034;20.650;2022-08-19T13:28:57;50.10;36.80
28767;DHT22;15921;52.034;20.650;2022-08-19T13:31:44;49.80;36.60
28767;DHT22;15921;52.034;20.650;2022-08-19T13:34:32;49.60;36.40
28767;DHT22;15921;52.034;20.650;2022-08-19T13:36:59;49.60;37.00
28767;DHT22;15921;52.034;20.650;2022-08-19T13:39:28;49.70;35.80
28767;DHT22;15921;52.034;20.650;2022-08-19T13:41:54;49.90;36.60
28767;DHT22;15921;52.034;20.650;2022-08-19T13:44:20;50.40;36.80
28767;DHT22;15921;52.034;20.650;2022-08-19T13:46:46;50.70;36.10
28767;DHT22;15921;52.034;20.650;2022-08-19T13:49:13;50.70;36.00
28767;DHT22;15921;52.034;20.650;2022-08-19T13:51:40;50.90;35.50
28767;DHT22;15921;52.034;20.650;2022-08-19T13:54:07;50.90;35.80
28767;DHT22;15921;52.034;20.650;2022-08-19T13:56:34;50.70;36.30
28767;DHT22;15921;52.034;20.650;2022-08-19T13:59:00;50.30;36.10
28767;DHT22;15921;52.034;20.650;2022-08-19T14:01:25;49.70;35.90
28767;DHT22;15921;52.034;20.650;2022-08-19T14:03:51;49.00;36.70
28767;DHT22;15921;52.034;20.650;2022-08-19T14:06:18;48.20;36.40
28767;DHT22;15921;52.034;20.650;2022-08-19T14:08:46;47.70;37.10
28767;DHT22;15921;52.034;20.650;2022-08-19T14:11:11;47.40;38.00
28767;DHT22;15921;52.034;20.650;2022-08-19T14:13:37;47.70;37.40
28767;DHT22;15921;52.034;20.650;2022-08-19T14:16:07;47.90;37.80
28767;DHT22;15921;52.034;20.650;2022-08-19T14:18:33;48.30;36.90
28767;DHT22;15921;52.034;20.650;2022-08-19T14:20:59;48.40;36.60
28767;DHT22;15921;52.034;20.650;2022-08-19T14:23:25;48.10;37.20
28767;DHT22;15921;52.034;20.650;2022-08-19T14:25:50;47.50;36.80
28767;DHT22;15921;52.034;20.650;2022-08-19T14:28:16;47.20;37.30
28767;DHT22;15921;52.034;20.650;2022-08-19T14:30:42;47.40;38.30
28767;DHT22;15921;52.034;20.650;2022-08-19T14:33:09;47.50;38.00
28767;DHT22;15921;52.034;20.650;2022-08-19T14:35:36;47.40;37.90
28767;DHT22;15921;52.034;20.650;2022-08-19T14:38:02;47.20;37.40
28767;DHT22;15921;52.034;20.650;2022-08-19T14:40:28;47.40;38.60
28767;DHT22;15921;52.034;20.650;2022-08-19T14:42:56;47.50;38.40
28767;DHT22;15921;52.034;20.650;2022-08-19T14:45:27;48.10;38.30
28767;DHT22;15921;52.034;20.650;2022-08-19T14:47:53;48.40;38.00
28767;DHT22;15921;52.034;20.650;2022-08-19T14:50:19;47.90;36.90
28767;DHT22;15921;52.034;20.650;2022-08-19T14:52:45;46.90;38.50
28767;DHT22;15921;52.034;20.650;2022-08-19T14:55:14;47.00;38.30
28767;DHT22;15921;52.034;20.650;2022-08-19T14:57:40;46.90;38.40
28767;DHT22;15921;52.034;20.650;2022-08-19T15:00:06;46.50;37.80
28767;DHT22;15921;52.034;20.650;2022-08-19T15:02:33;46.00;38.00
28767;DHT22;15921;52.034;20.650;2022-08-19T15:04:59;45.60;38.90
28767;DHT22;15921;52.034;20.650;2022-08-19T15:07:24;45.60;39.00
28767;DHT22;15921;52.034;20.650;2022-08-19T15:09:50;46.20;38.70
28767;DHT22;15921;52.034;20.650;2022-08-19T15:12:16;46.40;38.60
28767;DHT22;15921;52.034;20.650;2022-08-19T15:14:41;46.90;38.50
28767;DHT22;15921;52.034;20.650;2022-08-19T15:17:09;47.00;38.40
28767;DHT22;15921;52.034;20.650;2022-08-19T15:19:35;47.10;37.30
28767;DHT22;15921;52.034;20.650;2022-08-19T15:22:01;46.90;38.40
28767;DHT22;15921;52.034;20.650;2022-08-19T15:24:27;46.90;37.50
28767;DHT22;15921;52.034;20.650;2022-08-19T15:26:53;46.80;37.90
28767;DHT22;15921;52.034;20.650;2022-08-19T15:29:21;46.60;37.70
28767;DHT22;15921;52.034;20.650;2022-08-19T15:31:50;46.20;38.30